Kezdőlap
METAR-TAF:

METAR-TAF

Repülőterek :

New Ulm Municipal Airport

New Ulm, Minnesota, Amerikai Egyesült Államok

földrajzi szélesség: 44-19N, földrajzi hosszúság: 094-30W, magasság: 308 m

Jelenlegi meteorológiai megfigyelések

A jelentés 11 perccel ezelõtt készült, 12:15 UTC
Nyugati szél 3 kt
Hőmérséklet -22°C
Páratartalom 84%
Légköri nyomás 1019 hPa
Látótávolság: 16.1 km
Derült ég

METAR: KULM 151215Z AUTO 27003KT 10SM CLR M22/M24 A3010 RMK AO2

Idő: 06:26 (12:26 UTC)


TAF: hiányzik

Meteorológiai megfigyelések és előrejelzések több, mint 4000 repülőtéren (METAR és TAF jelentéseket).

A térképen piros és sárga pontok jelzik az elérhető meteorológiai állomásokat.

Mozgassa az egeret a pont fölött, hogy megjelenjen az állomás neve.

Azután kattintson az időjárási megfigyelések és előrejelzések megtekintéséhez.

A térkép megváltoztatása: kattintson a fekete keresztel jelölt zöld gombra ráközelítéshez, a vonallal jelölt zöld gombra távolításhoz, vagy a zöld nyilakra a szomszédos térképek eléréséhez.


METAR-TAF: